createdAt,value
2022-10-17T00:01:46.497Z,15.19
2022-10-17T00:03:49.323Z,15.30
2022-10-17T00:05:51.890Z,15.22
2022-10-17T00:07:55.741Z,14.79
2022-10-17T00:09:59.124Z,15.23
2022-10-17T00:12:02.778Z,15.27
2022-10-17T00:14:05.512Z,15.24
2022-10-17T00:16:09.819Z,15.29
2022-10-17T00:18:16.128Z,14.99
2022-10-17T00:20:18.905Z,14.87
2022-10-17T00:22:21.487Z,15.04
2022-10-17T00:24:24.037Z,15.14
2022-10-17T00:26:27.813Z,14.99
2022-10-17T00:28:32.973Z,15.15
2022-10-17T00:30:35.669Z,14.98
2022-10-17T00:32:38.383Z,14.97
2022-10-17T00:34:40.994Z,15.04
2022-10-17T00:36:43.535Z,14.96
2022-10-17T00:38:48.643Z,15.17
2022-10-17T00:40:51.209Z,15.14
2022-10-17T00:42:53.992Z,15.01
2022-10-17T00:45:22.138Z,15.16
2022-10-17T00:47:24.737Z,15.04
2022-10-17T00:49:31.558Z,15.03
2022-10-17T00:51:42.204Z,15.33
2022-10-17T00:53:45.699Z,15.09
2022-10-17T00:55:54.116Z,15.23
2022-10-17T00:57:59.983Z,14.86
2022-10-17T01:00:08.301Z,15.34
2022-10-17T01:02:15.544Z,15.33
2022-10-17T01:04:19.256Z,15.21
2022-10-17T01:06:21.859Z,14.95
2022-10-17T01:08:24.474Z,15.13
2022-10-17T01:11:02.442Z,15.05
2022-10-17T01:13:27.525Z,15.26
2022-10-17T01:15:59.519Z,15.15
2022-10-17T01:18:29.466Z,14.94
2022-10-17T01:21:08.194Z,15.04
2022-10-17T01:23:16.512Z,15.02
2022-10-17T01:25:52.860Z,14.95
2022-10-17T01:29:02.023Z,14.90
2022-10-17T01:31:23.852Z,14.53
2022-10-17T01:34:08.395Z,14.79
2022-10-17T01:36:31.906Z,14.74
2022-10-17T01:39:19.859Z,14.70
2022-10-17T01:41:52.862Z,14.62
2022-10-17T01:44:19.749Z,14.60
2022-10-17T01:46:39.682Z,14.34
2022-10-17T01:48:45.987Z,14.31
2022-10-17T01:50:58.783Z,14.44
2022-10-17T01:53:13.518Z,14.26
2022-10-17T01:55:32.286Z,14.02
2022-10-17T01:57:51.419Z,14.39
2022-10-17T01:59:56.424Z,14.29
2022-10-17T02:02:00.675Z,14.10
2022-10-17T02:04:05.981Z,14.08
2022-10-17T02:06:08.599Z,14.14
2022-10-17T02:08:12.314Z,14.02
2022-10-17T02:10:47.742Z,13.91
2022-10-17T02:13:17.882Z,14.16
2022-10-17T02:15:45.285Z,13.87
2022-10-17T02:18:19.134Z,14.01
2022-10-17T02:20:28.327Z,14.15
2022-10-17T02:22:44.124Z,14.22
2022-10-17T02:25:14.770Z,13.95
2022-10-17T02:27:26.680Z,14.29
2022-10-17T02:29:37.039Z,13.99
2022-10-17T02:31:47.923Z,13.64
2022-10-17T02:34:03.208Z,14.25
2022-10-17T02:36:20.918Z,14.36
2022-10-17T02:38:25.603Z,14.49
2022-10-17T02:40:31.094Z,14.72
2022-10-17T02:42:35.270Z,14.65
2022-10-17T02:44:44.038Z,14.70
2022-10-17T02:47:07.651Z,14.74
2022-10-17T02:49:23.598Z,14.68
2022-10-17T02:51:49.494Z,14.83
2022-10-17T02:54:15.272Z,15.03
2022-10-17T02:56:20.496Z,14.69
2022-10-17T02:58:31.506Z,14.83
2022-10-17T03:00:35.299Z,15.25
2022-10-17T03:02:50.879Z,14.91
2022-10-17T03:04:53.664Z,14.74
2022-10-17T03:06:56.338Z,15.46
2022-10-17T03:08:59.106Z,15.41
2022-10-17T03:11:02.799Z,15.05
2022-10-17T03:13:06.313Z,14.95
2022-10-17T03:15:13.616Z,15.31
2022-10-17T03:17:16.941Z,15.45
2022-10-17T03:19:19.544Z,15.46
2022-10-17T03:21:22.385Z,15.46
2022-10-17T03:23:25.002Z,15.53
2022-10-17T03:25:28.118Z,15.47
2022-10-17T03:27:31.341Z,15.42
2022-10-17T03:29:34.125Z,15.07
2022-10-17T03:31:38.562Z,15.07
2022-10-17T03:33:42.879Z,15.31
2022-10-17T03:35:45.505Z,15.25
2022-10-17T03:37:48.233Z,15.13
2022-10-17T03:39:51.914Z,14.73
2022-10-17T03:41:54.556Z,15.43
2022-10-17T03:43:57.182Z,15.28
2022-10-17T03:46:00.866Z,15.36
2022-10-17T03:48:04.527Z,14.90
2022-10-17T03:50:07.654Z,15.24
2022-10-17T03:52:13.923Z,15.33
2022-10-17T03:54:16.466Z,15.24
2022-10-17T03:56:24.536Z,15.27
2022-10-17T03:58:35.188Z,15.35
2022-10-17T04:00:38.404Z,15.46
2022-10-17T04:02:41.494Z,15.33
2022-10-17T04:04:47.453Z,15.17
2022-10-17T04:06:50.077Z,15.22
2022-10-17T04:08:53.453Z,15.37
2022-10-17T04:11:07.005Z,15.13
2022-10-17T04:13:09.608Z,15.38
2022-10-17T04:15:12.429Z,15.27
2022-10-17T04:17:26.895Z,15.21
2022-10-17T04:19:29.601Z,15.21
2022-10-17T04:21:32.332Z,15.19
2022-10-17T04:23:40.474Z,15.28
2022-10-17T04:25:57.565Z,15.31
2022-10-17T04:28:01.237Z,15.28
2022-10-17T04:30:04.214Z,14.92
2022-10-17T04:32:08.829Z,15.06
2022-10-17T04:34:19.264Z,14.90
2022-10-17T04:36:23.403Z,14.84
2022-10-17T04:38:28.652Z,15.06
2022-10-17T04:40:31.721Z,14.70
2022-10-17T04:42:35.127Z,14.83
2022-10-17T04:44:37.718Z,14.20
2022-10-17T04:46:40.537Z,14.19
2022-10-17T04:48:43.271Z,14.03
2022-10-17T04:51:00.372Z,14.27
2022-10-17T04:53:10.275Z,14.29
2022-10-17T04:55:17.017Z,14.26
2022-10-17T04:57:20.128Z,14.18
2022-10-17T04:59:31.366Z,14.33
2022-10-17T05:02:21.339Z,14.21
2022-10-17T05:04:25.349Z,13.73
2022-10-17T05:06:29.059Z,14.20
2022-10-17T05:09:03.990Z,14.24
2022-10-17T05:11:19.525Z,14.43
2022-10-17T05:13:22.894Z,13.76
2022-10-17T05:15:25.492Z,14.17
2022-10-17T05:17:31.046Z,14.22
2022-10-17T05:19:33.655Z,14.41
2022-10-17T05:21:37.496Z,14.35
2022-10-17T05:23:41.159Z,14.18
2022-10-17T05:25:43.717Z,14.18
2022-10-17T05:27:47.480Z,14.10
2022-10-17T05:30:13.057Z,14.32
2022-10-17T05:32:17.193Z,14.39
2022-10-17T05:34:20.028Z,14.45
2022-10-17T05:36:25.068Z,14.45
2022-10-17T05:38:29.699Z,13.77
2022-10-17T05:40:32.698Z,14.31
2022-10-17T05:42:35.385Z,14.01
2022-10-17T05:44:39.671Z,14.39
2022-10-17T05:46:43.272Z,14.23
2022-10-17T05:49:14.727Z,14.32
2022-10-17T05:51:27.039Z,14.30
2022-10-17T05:53:33.651Z,14.47
2022-10-17T05:55:40.018Z,14.31
2022-10-17T05:58:09.731Z,14.38
2022-10-17T06:00:17.758Z,13.91
2022-10-17T06:02:28.360Z,13.94
2022-10-17T06:04:31.738Z,14.32
2022-10-17T06:06:38.347Z,14.44
2022-10-17T06:08:41.280Z,14.46
2022-10-17T06:10:51.034Z,14.46
2022-10-17T06:12:53.850Z,14.53
2022-10-17T06:14:56.604Z,14.60
2022-10-17T06:16:59.506Z,14.57
2022-10-17T06:19:02.918Z,14.61
2022-10-17T06:21:10.369Z,14.72
2022-10-17T06:23:41.533Z,14.65
2022-10-17T06:25:51.993Z,14.72
2022-10-17T06:27:54.510Z,14.86
2022-10-17T06:29:58.072Z,14.90
2022-10-17T06:32:00.896Z,14.27
2022-10-17T06:34:03.640Z,14.34
2022-10-17T06:36:08.677Z,15.14
2022-10-17T06:38:40.946Z,15.03
2022-10-17T06:40:50.840Z,14.96
2022-10-17T06:42:53.396Z,15.06
2022-10-17T06:45:01.194Z,15.04
2022-10-17T06:47:31.203Z,15.15
2022-10-17T06:49:37.273Z,14.73
2022-10-17T06:51:53.958Z,15.43
2022-10-17T06:54:04.232Z,15.29
2022-10-17T06:56:27.240Z,15.38
2022-10-17T06:58:47.727Z,15.44
2022-10-17T07:03:12.002Z,15.78
2022-10-17T07:05:14.687Z,15.57
2022-10-17T07:07:17.279Z,15.60
2022-10-17T07:09:20.179Z,15.70
2022-10-17T07:11:23.560Z,15.80
2022-10-17T07:13:28.007Z,15.25
2022-10-17T07:15:32.447Z,15.77
2022-10-17T07:23:03.255Z,15.86
2022-10-17T07:30:53.721Z,16.30
2022-10-17T07:32:57.145Z,16.20
2022-10-17T07:34:59.738Z,16.30
2022-10-17T07:37:02.893Z,16.52
2022-10-17T07:39:08.156Z,16.09
2022-10-17T07:41:26.774Z,16.64
2022-10-17T07:43:30.868Z,16.50
2022-10-17T07:45:35.165Z,16.67
2022-10-17T07:47:37.747Z,16.68
2022-10-17T07:49:45.299Z,16.40
2022-10-17T07:51:50.265Z,16.83
2022-10-17T07:53:53.842Z,16.99
2022-10-17T07:55:56.523Z,16.63
2022-10-17T07:58:00.572Z,16.54
2022-10-17T08:00:03.772Z,17.29
2022-10-17T08:02:44.485Z,17.25
2022-10-17T08:04:47.063Z,17.33
2022-10-17T08:06:53.389Z,17.72
2022-10-17T08:08:59.719Z,17.61
2022-10-17T08:11:31.803Z,17.99
2022-10-17T08:13:36.677Z,18.12
2022-10-17T08:15:39.371Z,18.29
2022-10-17T08:17:41.950Z,18.15
2022-10-17T08:19:44.629Z,18.45
2022-10-17T08:21:51.884Z,18.52
2022-10-17T08:23:54.474Z,18.30
2022-10-17T08:26:01.218Z,18.89
2022-10-17T08:28:03.877Z,18.84
2022-10-17T08:30:07.254Z,18.74
2022-10-17T08:32:10.409Z,18.55
2022-10-17T08:34:13.056Z,18.72
2022-10-17T08:36:19.824Z,19.26
2022-10-17T08:38:25.096Z,19.17
2022-10-17T08:40:33.833Z,19.46
2022-10-17T08:43:17.702Z,19.54
2022-10-17T08:45:52.846Z,19.51
2022-10-17T08:48:01.273Z,19.34
2022-10-17T08:50:09.998Z,19.63
2022-10-17T08:52:45.334Z,19.43
2022-10-17T08:54:49.315Z,19.84
2022-10-17T08:56:55.151Z,19.80
2022-10-17T08:58:58.812Z,19.86
2022-10-17T09:01:33.801Z,19.95
2022-10-17T09:04:33.241Z,20.19
2022-10-17T09:06:43.959Z,20.08
2022-10-17T09:09:08.290Z,20.37
2022-10-17T09:11:38.547Z,19.85
2022-10-17T09:14:46.830Z,20.52
2022-10-17T09:17:22.403Z,20.59
2022-10-17T09:20:04.028Z,20.61
2022-10-17T09:22:15.236Z,20.67
2022-10-17T09:24:28.538Z,20.40
2022-10-17T09:26:35.053Z,20.57
2022-10-17T09:28:43.884Z,20.56
2022-10-17T09:30:56.657Z,20.76
2022-10-17T09:33:01.247Z,20.70
2022-10-17T09:35:14.079Z,20.80
2022-10-17T09:37:33.739Z,20.98
2022-10-17T09:39:36.434Z,20.83
2022-10-17T09:41:48.700Z,20.92
2022-10-17T09:43:58.762Z,20.95
2022-10-17T09:46:23.665Z,20.97
2022-10-17T09:48:40.116Z,20.39
2022-10-17T09:50:48.270Z,21.13
2022-10-17T09:53:01.936Z,21.24
2022-10-17T09:55:38.149Z,21.37
2022-10-17T09:58:00.969Z,21.27
2022-10-17T10:00:06.539Z,21.51
2022-10-17T10:03:02.037Z,20.29
2022-10-17T10:05:19.134Z,21.44
2022-10-17T10:07:26.892Z,21.65
2022-10-17T10:09:36.828Z,21.84
2022-10-17T10:11:55.277Z,22.07
2022-10-17T10:14:15.874Z,22.24
2022-10-17T10:16:26.753Z,22.36
2022-10-17T10:18:36.030Z,22.30
2022-10-17T10:20:38.678Z,22.04
2022-10-17T10:22:41.267Z,22.20
2022-10-17T10:24:43.870Z,22.75
2022-10-17T10:26:48.927Z,22.51
2022-10-17T10:29:05.388Z,22.60
2022-10-17T10:31:09.955Z,22.66
2022-10-17T10:33:12.791Z,22.73
2022-10-17T10:35:27.303Z,22.79
2022-10-17T10:37:43.659Z,22.54
2022-10-17T10:39:51.299Z,22.74
2022-10-17T10:41:54.308Z,22.54
2022-10-17T10:43:56.907Z,22.39
2022-10-17T10:46:00.750Z,22.22
2022-10-17T10:48:25.347Z,22.87
2022-10-17T10:51:02.660Z,22.58
2022-10-17T10:53:35.147Z,22.87
2022-10-17T10:55:53.531Z,22.68
2022-10-17T10:58:22.296Z,22.91
2022-10-17T11:00:29.148Z,22.92
2022-10-17T11:03:01.208Z,22.97
2022-10-17T11:05:37.872Z,23.08
2022-10-17T11:08:10.578Z,23.09
2022-10-17T11:10:33.086Z,23.25
2022-10-17T11:12:40.349Z,23.10
2022-10-17T11:14:51.789Z,23.20
2022-10-17T11:17:39.650Z,23.20
2022-10-17T11:20:01.569Z,23.27
2022-10-17T11:22:24.016Z,23.42
2022-10-17T11:24:47.377Z,23.02
2022-10-17T11:27:03.533Z,23.36
2022-10-17T11:29:09.017Z,23.42
2022-10-17T11:31:16.268Z,23.54
2022-10-17T11:33:56.456Z,23.79
2022-10-17T11:36:05.508Z,23.88
2022-10-17T11:38:40.677Z,23.82
2022-10-17T11:40:49.389Z,23.93
2022-10-17T11:43:09.825Z,23.81
2022-10-17T11:45:20.315Z,24.23
2022-10-17T11:47:49.422Z,24.30
2022-10-17T11:51:59.882Z,24.05
2022-10-17T11:52:56.063Z,24.20
2022-10-17T11:55:23.828Z,24.32
2022-10-17T11:57:56.469Z,24.27
2022-10-17T12:00:20.533Z,24.36
2022-10-17T12:03:01.387Z,24.40
2022-10-17T12:05:31.864Z,24.32
2022-10-17T12:07:46.499Z,24.37
2022-10-17T12:09:57.381Z,24.33
2022-10-17T12:12:02.645Z,24.35
2022-10-17T12:14:33.750Z,24.36
2022-10-17T12:16:39.645Z,24.39
2022-10-17T12:18:42.569Z,24.17
2022-10-17T12:21:00.125Z,24.36
2022-10-17T12:23:32.112Z,24.34
2022-10-17T12:28:26.468Z,24.28
2022-10-17T12:30:35.242Z,24.15
2022-10-17T12:33:05.539Z,24.43
2022-10-17T12:35:22.459Z,24.37
2022-10-17T12:37:43.478Z,24.28
2022-10-17T12:39:47.060Z,24.15
2022-10-17T12:41:49.738Z,24.28
2022-10-17T12:43:54.665Z,24.09
2022-10-17T12:45:59.935Z,24.38
2022-10-17T12:48:02.753Z,24.30
2022-10-17T12:51:17.746Z,24.44
2022-10-17T12:54:15.442Z,24.50
2022-10-17T12:56:30.041Z,24.44
2022-10-17T12:58:48.233Z,24.35
2022-10-17T13:01:48.625Z,24.48
2022-10-17T13:03:53.104Z,24.27
2022-10-17T13:06:06.063Z,24.35
2022-10-17T13:08:22.302Z,24.44
2022-10-17T13:10:30.424Z,24.54
2022-10-17T13:12:41.238Z,24.28
2022-10-17T13:14:47.505Z,24.44
2022-10-17T13:17:02.772Z,24.57
2022-10-17T13:19:16.211Z,24.37
2022-10-17T13:21:18.999Z,24.71
2022-10-17T13:23:26.691Z,24.63
2022-10-17T13:25:29.266Z,24.50
2022-10-17T13:27:35.445Z,24.52
2022-10-17T13:29:44.884Z,24.31
2022-10-17T13:31:54.571Z,24.68
2022-10-17T13:34:00.134Z,24.76
2022-10-17T13:36:13.683Z,24.37
2022-10-17T13:38:44.066Z,24.65
2022-10-17T13:40:50.605Z,24.73
2022-10-17T13:42:56.350Z,24.71
2022-10-17T13:44:59.702Z,24.49
2022-10-17T13:47:02.607Z,24.69
2022-10-17T13:49:28.130Z,24.87
2022-10-17T13:51:31.782Z,24.89
2022-10-17T13:53:41.488Z,24.87
2022-10-17T13:56:26.272Z,25.00
2022-10-17T13:58:25.950Z,24.89
2022-10-17T14:00:28.607Z,24.64
2022-10-17T14:02:41.909Z,24.87
2022-10-17T14:05:15.693Z,24.58
2022-10-17T14:07:27.029Z,24.81
2022-10-17T14:09:30.984Z,24.53
2022-10-17T14:11:40.605Z,24.68
2022-10-17T14:15:12.671Z,24.80
2022-10-17T14:18:35.939Z,24.76
2022-10-17T14:23:22.042Z,24.69
2022-10-17T14:25:40.135Z,24.62
2022-10-17T14:28:19.514Z,24.42
2022-10-17T14:30:51.782Z,24.46
2022-10-17T14:32:50.375Z,24.02
2022-10-17T14:35:16.582Z,23.59
2022-10-17T14:37:47.715Z,24.23
2022-10-17T14:39:51.991Z,23.96
2022-10-17T14:41:55.413Z,24.00
2022-10-17T14:44:16.352Z,23.61
2022-10-17T14:46:19.090Z,22.84
2022-10-17T14:48:23.550Z,23.32
2022-10-17T14:51:18.385Z,23.72
2022-10-17T14:53:21.862Z,23.64
2022-10-17T14:55:28.655Z,23.64
2022-10-17T14:57:34.438Z,23.53
2022-10-17T14:59:53.401Z,23.15
2022-10-17T15:01:57.082Z,23.07
2022-10-17T15:03:59.686Z,23.16
2022-10-17T15:06:19.486Z,23.31
2022-10-17T15:08:24.199Z,23.10
2022-10-17T15:10:37.270Z,22.94
2022-10-17T15:12:47.007Z,23.03
2022-10-17T15:14:58.983Z,23.08
2022-10-17T15:17:01.502Z,23.19
2022-10-17T15:19:04.121Z,22.52
2022-10-17T15:21:26.470Z,23.10
2022-10-17T15:23:48.330Z,22.85
2022-10-17T15:25:50.903Z,22.61
2022-10-17T15:27:54.011Z,22.85
2022-10-17T15:30:01.285Z,22.82
2022-10-17T15:32:03.810Z,22.96
2022-10-17T15:34:06.366Z,22.89
2022-10-17T15:36:31.073Z,22.92
2022-10-17T15:38:34.207Z,22.78
2022-10-17T15:40:36.706Z,22.74
2022-10-17T15:42:39.258Z,22.71
2022-10-17T15:44:44.282Z,22.53
2022-10-17T15:46:46.928Z,22.27
2022-10-17T15:48:49.732Z,22.54
2022-10-17T15:50:52.273Z,22.30
2022-10-17T15:54:15.629Z,22.39
2022-10-17T15:56:25.341Z,22.31
2022-10-17T15:58:40.409Z,22.22
2022-10-17T16:00:43.629Z,21.93
2022-10-17T16:02:47.067Z,22.03
2022-10-17T16:04:51.161Z,21.97
2022-10-17T16:06:53.807Z,21.66
2022-10-17T16:08:56.417Z,21.14
2022-10-17T16:10:59.096Z,21.58
2022-10-17T16:13:01.623Z,21.39
2022-10-17T16:15:04.573Z,21.37
2022-10-17T16:17:10.949Z,21.36
2022-10-17T16:19:13.509Z,21.30
2022-10-17T16:21:18.488Z,21.31
2022-10-17T16:23:23.650Z,21.06
2022-10-17T16:25:29.959Z,21.26
2022-10-17T16:27:32.540Z,21.06
2022-10-17T16:29:35.213Z,20.63
2022-10-17T16:31:42.842Z,21.06
2022-10-17T16:33:45.620Z,21.06
2022-10-17T16:35:49.364Z,21.01
2022-10-17T16:37:52.047Z,20.24
2022-10-17T16:40:12.239Z,20.91
2022-10-17T16:42:14.817Z,20.78
2022-10-17T16:44:18.002Z,20.67
2022-10-17T16:46:21.248Z,20.77
2022-10-17T16:48:29.832Z,20.72
2022-10-17T16:50:35.671Z,20.53
2022-10-17T16:54:02.592Z,20.58
2022-10-17T16:56:08.475Z,20.23
2022-10-17T16:58:11.181Z,20.19
2022-10-17T17:00:14.525Z,19.99
2022-10-17T17:02:34.492Z,20.18
2022-10-17T17:04:37.259Z,19.92
2022-10-17T17:06:39.845Z,19.93
2022-10-17T17:08:43.410Z,20.15
2022-10-17T17:10:51.160Z,19.75
2022-10-17T17:12:53.717Z,19.96
2022-10-17T17:14:56.292Z,19.78
2022-10-17T17:16:58.877Z,19.57
2022-10-17T17:19:12.468Z,19.91
2022-10-17T17:21:15.735Z,19.87
2022-10-17T17:23:18.241Z,19.79
2022-10-17T17:25:21.941Z,19.62
2022-10-17T17:27:25.210Z,19.72
2022-10-17T17:29:28.105Z,19.08
2022-10-17T17:31:34.139Z,19.81
2022-10-17T17:33:39.353Z,19.60
2022-10-17T17:35:41.933Z,19.42
2022-10-17T17:37:44.468Z,19.41
2022-10-17T17:39:47.129Z,19.50
2022-10-17T17:41:50.684Z,19.48
2022-10-17T17:43:54.892Z,18.57
2022-10-17T17:45:57.385Z,19.37
2022-10-17T17:48:01.694Z,19.35
2022-10-17T17:50:04.625Z,19.13
2022-10-17T17:52:08.703Z,19.31
2022-10-17T17:54:13.759Z,19.29
2022-10-17T17:56:23.174Z,19.06
2022-10-17T17:58:26.097Z,19.20
2022-10-17T18:00:29.259Z,18.59
2022-10-17T18:02:32.848Z,18.58
2022-10-17T18:04:35.994Z,18.59
2022-10-17T18:06:39.538Z,18.97
2022-10-17T18:08:46.888Z,19.06
2022-10-17T18:10:54.395Z,19.08
2022-10-17T18:12:56.930Z,18.93
2022-10-17T18:14:59.478Z,18.73
2022-10-17T18:17:02.016Z,18.96
2022-10-17T18:19:07.149Z,18.96
2022-10-17T18:21:12.857Z,18.87
2022-10-17T18:23:15.376Z,19.12
2022-10-17T18:25:18.113Z,18.57
2022-10-17T18:27:20.661Z,19.13
2022-10-17T18:29:23.195Z,18.92
2022-10-17T18:31:28.928Z,19.30
2022-10-17T18:33:31.463Z,19.30
2022-10-17T18:35:34.805Z,19.24
2022-10-17T18:37:37.400Z,19.28
2022-10-17T18:39:40.332Z,19.17
2022-10-17T18:41:42.970Z,19.33
2022-10-17T18:43:47.196Z,18.69
2022-10-17T18:45:49.744Z,18.63
2022-10-17T18:47:54.716Z,19.08
2022-10-17T18:49:57.738Z,19.04
2022-10-17T18:52:00.275Z,18.09
2022-10-17T18:54:03.662Z,18.49
2022-10-17T18:56:06.337Z,17.98
2022-10-17T18:58:08.908Z,18.75
2022-10-17T19:00:12.161Z,18.65
2022-10-17T19:02:14.742Z,18.61
2022-10-17T19:04:17.545Z,18.59
2022-10-17T19:06:24.070Z,18.32
2022-10-17T19:08:26.595Z,18.58
2022-10-17T19:10:29.226Z,18.55
2022-10-17T19:12:32.144Z,18.36
2022-10-17T19:14:35.143Z,18.47
2022-10-17T19:16:37.843Z,18.43
2022-10-17T19:18:40.603Z,18.43
2022-10-17T19:20:43.757Z,17.80
2022-10-17T19:22:46.364Z,17.95
2022-10-17T19:24:48.952Z,18.40
2022-10-17T19:26:55.282Z,18.48
2022-10-17T19:29:00.381Z,18.18
2022-10-17T19:31:05.511Z,18.45
2022-10-17T19:33:08.106Z,18.35
2022-10-17T19:35:11.415Z,17.84
2022-10-17T19:37:41.736Z,18.41
2022-10-17T19:39:44.301Z,18.15
2022-10-17T19:41:48.348Z,18.27
2022-10-17T19:43:51.161Z,17.78
2022-10-17T19:46:02.662Z,18.33
2022-10-17T19:48:05.718Z,18.31
2022-10-17T19:50:16.301Z,18.37
2022-10-17T19:52:18.871Z,18.50
2022-10-17T19:54:21.396Z,18.05
2022-10-17T19:56:25.298Z,18.23
2022-10-17T19:58:28.376Z,17.87
2022-10-17T20:00:30.929Z,17.35
2022-10-17T20:02:33.558Z,18.08
2022-10-17T20:04:39.435Z,18.22
2022-10-17T20:06:44.656Z,17.83
2022-10-17T20:08:47.577Z,18.30
2022-10-17T20:10:50.107Z,18.20
2022-10-17T20:12:52.610Z,18.13
2022-10-17T20:14:55.388Z,18.26
2022-10-17T20:16:57.906Z,18.31
2022-10-17T20:19:09.724Z,18.33
2022-10-17T20:21:17.503Z,18.27
2022-10-17T20:23:20.174Z,18.25
2022-10-17T20:25:22.933Z,18.11
2022-10-17T20:27:27.724Z,18.06
2022-10-17T20:29:30.489Z,18.06
2022-10-17T20:31:33.054Z,18.11
2022-10-17T20:33:35.649Z,17.91
2022-10-17T20:35:43.197Z,18.18
2022-10-17T20:37:59.070Z,17.90
2022-10-17T20:40:23.021Z,17.71
2022-10-17T20:42:27.619Z,18.00
2022-10-17T20:48:34.223Z,17.89
2022-10-17T20:50:37.732Z,17.67
2022-10-17T20:52:40.281Z,17.92
2022-10-17T20:55:13.173Z,17.78
2022-10-17T20:57:15.745Z,17.79
2022-10-17T20:59:18.531Z,17.79
2022-10-17T21:01:22.619Z,17.89
2022-10-17T21:03:25.788Z,17.78
2022-10-17T21:05:28.405Z,17.64
2022-10-17T21:07:31.178Z,17.83
2022-10-17T21:09:33.898Z,17.71
2022-10-17T21:11:36.415Z,17.66
2022-10-17T21:13:39.627Z,17.78
2022-10-17T21:15:44.931Z,17.58
2022-10-17T21:17:47.441Z,17.67
2022-10-17T21:19:50.002Z,17.61
2022-10-17T21:21:52.552Z,17.43
2022-10-17T21:23:58.769Z,17.52
2022-10-17T21:26:01.338Z,17.56
2022-10-17T21:28:03.887Z,17.50
2022-10-17T21:32:19.633Z,17.71
2022-10-17T21:34:34.041Z,17.66
2022-10-17T21:36:36.778Z,17.37
2022-10-17T21:38:40.679Z,17.51
2022-10-17T21:40:46.953Z,17.42
2022-10-17T21:42:49.458Z,17.35
2022-10-17T21:44:52.047Z,17.52
2022-10-17T21:46:55.645Z,17.57
2022-10-17T21:49:00.307Z,17.25
2022-10-17T21:51:06.307Z,16.99
2022-10-17T21:53:08.855Z,17.41
2022-10-17T21:55:11.405Z,17.37
2022-10-17T21:57:13.992Z,17.32
2022-10-17T21:59:16.948Z,17.28
2022-10-17T22:01:33.803Z,17.26
2022-10-17T22:03:42.668Z,16.96
2022-10-17T22:05:48.290Z,17.02
2022-10-17T22:07:50.836Z,17.03
2022-10-17T22:09:53.467Z,17.06
2022-10-17T22:11:57.685Z,17.08
2022-10-17T22:14:12.120Z,16.84
2022-10-17T22:16:16.744Z,16.73
2022-10-17T22:18:20.267Z,16.80
2022-10-17T22:20:22.917Z,16.86
2022-10-17T22:22:25.629Z,16.38
2022-10-17T22:24:28.467Z,16.83
2022-10-17T22:26:33.080Z,17.00
2022-10-17T22:28:36.465Z,16.97
2022-10-17T22:30:39.078Z,16.39
2022-10-17T22:32:41.680Z,16.85
2022-10-17T22:34:44.208Z,16.76
2022-10-17T22:36:48.949Z,16.84
2022-10-17T22:38:51.810Z,16.83
2022-10-17T22:40:54.541Z,16.98
2022-10-17T22:42:57.109Z,16.25
2022-10-17T22:44:59.763Z,16.89
2022-10-17T22:47:02.310Z,16.70
2022-10-17T22:49:04.874Z,16.38
2022-10-17T22:51:08.485Z,16.27
2022-10-17T22:53:12.255Z,16.08
2022-10-17T22:55:15.245Z,16.29
2022-10-17T22:57:18.228Z,16.78
2022-10-17T22:59:20.908Z,16.85
2022-10-17T23:01:25.475Z,16.87
2022-10-17T23:03:29.954Z,16.88
2022-10-17T23:05:32.541Z,16.54
2022-10-17T23:07:35.185Z,16.88
2022-10-17T23:09:37.865Z,16.77
2022-10-17T23:11:40.357Z,16.52
2022-10-17T23:13:42.961Z,16.76
2022-10-17T23:15:45.877Z,16.80
2022-10-17T23:17:48.767Z,15.80
2022-10-17T23:19:54.151Z,16.74
2022-10-17T23:22:00.264Z,16.86
2022-10-17T23:24:02.760Z,16.48
2022-10-17T23:26:14.035Z,16.78
2022-10-17T23:28:17.001Z,16.89
2022-10-17T23:30:19.541Z,16.81
2022-10-17T23:32:22.093Z,15.99
2022-10-17T23:34:24.673Z,16.75
2022-10-17T23:36:27.286Z,16.67
2022-10-17T23:38:29.813Z,16.64
2022-10-17T23:40:32.367Z,16.67
2022-10-17T23:42:34.928Z,16.37
2022-10-17T23:44:37.432Z,16.68
2022-10-17T23:46:40.002Z,16.81
2022-10-17T23:48:42.639Z,16.71
2022-10-17T23:50:45.299Z,16.59
2022-10-17T23:52:47.894Z,16.65
2022-10-17T23:54:50.439Z,16.43
2022-10-17T23:56:53.006Z,16.32
2022-10-17T23:58:55.505Z,16.82
